Time;durP1;ratioP1;P1;durP2;ratioP2;P2;SDS_P1;SDS_P2;PMS_P1;PMS_P2;Temp;Humidity;BMP_temperature;BMP_pressure;BME280_temperature;BME280_humidity;BME280_pressure;Samples;Min_cycle;Max_cycle;Signal;HPM_P1;HPM_P2
2022/03/08 10:11:26;;;;;;;14.57;13.67;;;9.80;53.60;;;;;;5107271;27;20914;-73
2022/03/08 10:13:53;;;;;;;14.63;13.27;;;9.40;51.70;;;;;;5110283;28;20446;-73
2022/03/08 10:16:23;;;;;;;15.50;14.60;;;9.30;51.50;;;;;;5104520;28;20502;-73
2022/03/08 10:18:52;;;;;;;14.17;13.27;;;9.60;51.40;;;;;;5104138;28;20453;-73
2022/03/08 10:21:33;;;;;;;14.63;13.63;;;9.50;51.40;;;;;;5104151;28;20951;-73
2022/03/08 10:24:02;;;;;;;14.20;13.10;;;9.80;51.60;;;;;;5104258;28;20442;-72
2022/03/08 10:26:32;;;;;;;16.40;15.07;;;10.10;49.90;;;;;;5104027;28;20945;-74
2022/03/08 10:28:59;;;;;;;14.53;13.33;;;10.60;49.10;;;;;;5104184;28;20879;-74
2022/03/08 10:31:26;;;;;;;15.03;13.93;;;10.60;48.10;;;;;;5103953;28;20512;-74
2022/03/08 10:34:02;;;;;;;14.63;13.50;;;10.70;48.10;;;;;;5103828;28;20452;-74
2022/03/08 10:36:28;;;;;;;14.87;13.87;;;11.10;47.40;;;;;;5104044;28;20446;-72
2022/03/08 10:39:13;;;;;;;13.37;12.60;;;10.70;45.60;;;;;;5103915;28;20806;-73
2022/03/08 10:41:53;;;;;;;17.73;16.33;;;10.70;46.70;;;;;;5103956;28;20446;-73
2022/03/08 10:44:32;;;;;;;15.87;14.67;;;11.20;47.10;;;;;;5104034;28;20461;-73
2022/03/08 10:47:05;;;;;;;13.60;12.83;;;11.60;45.90;;;;;;5103954;28;20458;-74
2022/03/08 10:49:33;;;;;;;13.73;12.60;;;11.10;44.50;;;;;;5103826;28;20447;-73
2022/03/08 10:52:01;;;;;;;13.50;12.57;;;11.10;46.10;;;;;;5103900;28;20453;-73
2022/03/08 10:54:29;;;;;;;13.90;13.10;;;11.50;45.60;;;;;;5103665;28;20454;-73
2022/03/08 10:56:58;;;;;;;14.53;13.53;;;12.10;44.80;;;;;;5103640;28;20450;-73
2022/03/08 10:59:25;;;;;;;14.47;13.57;;;12.00;44.00;;;;;;5103362;28;20997;-73
2022/03/08 11:01:51;;;;;;;14.20;13.20;;;12.50;43.40;;;;;;5103214;28;20474;-74
2022/03/08 11:04:20;;;;;;;15.07;14.07;;;11.90;42.90;;;;;;5103710;28;20464;-73
2022/03/08 11:06:50;;;;;;;15.57;14.60;;;11.50;43.80;;;;;;5103545;28;20452;-73
2022/03/08 11:09:18;;;;;;;14.20;13.30;;;11.60;43.80;;;;;;5103402;28;20454;-73
2022/03/08 11:11:45;;;;;;;13.90;12.73;;;11.80;42.50;;;;;;5093462;27;20443;-72
2022/03/08 11:14:14;;;;;;;13.90;13.00;;;11.30;41.80;;;;;;5089645;28;20472;-73
2022/03/08 11:16:41;;;;;;;12.40;11.63;;;11.20;42.80;;;;;;5089716;28;20479;-74
2022/03/08 11:19:08;;;;;;;13.47;12.60;;;11.00;43.50;;;;;;5089452;28;20448;-72
2022/03/08 11:21:36;;;;;;;12.53;11.83;;;11.30;41.60;;;;;;5089578;28;20464;-72
2022/03/08 11:24:05;;;;;;;13.67;12.73;;;11.10;41.50;;;;;;5089645;28;20455;-73
2022/03/08 11:26:32;;;;;;;13.73;12.83;;;10.80;42.40;;;;;;5089791;28;21006;-72
2022/03/08 11:29:00;;;;;;;13.50;12.80;;;11.30;43.10;;;;;;5089534;28;20443;-73
2022/03/08 11:31:32;;;;;;;13.37;12.27;;;11.60;42.40;;;;;;5089481;28;20536;-72
2022/03/08 11:34:05;;;;;;;14.97;14.00;;;11.40;42.20;;;;;;5089547;28;20453;-72
2022/03/08 11:36:34;;;;;;;13.47;12.67;;;11.30;42.50;;;;;;5089760;28;20487;-72
2022/03/08 11:39:18;;;;;;;14.10;12.97;;;11.50;42.20;;;;;;5089609;28;20441;-73
2022/03/08 11:41:47;;;;;;;13.83;13.03;;;11.30;41.80;;;;;;5089574;28;20477;-72
2022/03/08 11:44:22;;;;;;;14.43;13.53;;;11.20;41.60;;;;;;5089330;28;20470;-72
2022/03/08 11:47:01;;;;;;;14.93;14.13;;;11.20;42.20;;;;;;5089383;28;20454;-72
2022/03/08 11:49:52;;;;;;;14.73;13.83;;;11.70;41.90;;;;;;5089209;28;20457;-73
2022/03/08 11:52:20;;;;;;;14.47;13.43;;;11.80;41.30;;;;;;5089419;28;20438;-73
2022/03/08 11:54:55;;;;;;;14.03;13.30;;;11.90;40.80;;;;;;5089333;28;20454;-74
2022/03/08 11:57:51;;;;;;;16.03;15.03;;;12.80;40.90;;;;;;5089139;28;20478;-74
2022/03/08 12:00:19;;;;;;;16.00;14.90;;;13.50;40.30;;;;;;5089372;28;20447;-74
2022/03/08 12:02:48;;;;;;;15.80;14.63;;;13.90;40.30;;;;;;5089269;28;20478;-74
2022/03/08 12:05:57;;;;;;;16.03;14.87;;;13.40;40.10;;;;;;5089413;28;20462;-74
2022/03/08 12:09:01;;;;;;;15.70;14.80;;;12.90;40.50;;;;;;5087716;28;20482;-74
2022/03/08 12:11:46;;;;;;;14.67;13.87;;;13.50;40.00;;;;;;5088618;28;20482;-74
2022/03/08 12:14:16;;;;;;;15.27;14.23;;;13.40;39.30;;;;;;5088802;28;20449;-74
2022/03/08 12:16:45;;;;;;;15.67;14.60;;;12.00;40.40;;;;;;5088811;28;20446;-74
2022/03/08 12:19:19;;;;;;;14.90;14.00;;;12.70;41.50;;;;;;5088832;28;20941;-73
2022/03/08 12:21:47;;;;;;;15.37;14.37;;;12.80;40.10;;;;;;5088856;28;20439;-73
2022/03/08 12:24:18;;;;;;;15.73;14.47;;;12.90;40.20;;;;;;5087919;28;20435;-74
2022/03/08 12:26:58;;;;;;;14.33;13.43;;;12.70;39.50;;;;;;5088981;28;20964;-73
2022/03/08 12:29:26;;;;;;;16.40;15.03;;;11.90;39.10;;;;;;5089009;28;20469;-74
2022/03/08 12:32:12;;;;;;;14.60;13.60;;;11.50;40.30;;;;;;5088767;28;20443;-74
2022/03/08 12:34:43;;;;;;;15.60;14.50;;;11.90;40.30;;;;;;5089726;28;20853;-74
2022/03/08 12:37:13;;;;;;;14.83;13.83;;;12.10;39.60;;;;;;5088848;28;20602;-74
2022/03/08 12:39:52;;;;;;;14.97;14.00;;;12.10;39.50;;;;;;5088709;28;20446;-74
2022/03/08 12:42:32;;;;;;;13.80;13.00;;;12.50;39.20;;;;;;5089010;28;20453;-74
2022/03/08 12:45:02;;;;;;;15.23;14.10;;;12.60;38.40;;;;;;5088796;28;20478;-74
2022/03/08 12:47:31;;;;;;;15.10;14.20;;;12.40;38.60;;;;;;5088447;28;20455;-74
2022/03/08 12:50:05;;;;;;;15.53;14.53;;;12.50;38.90;;;;;;5088168;28;20474;-74
2022/03/08 12:52:37;;;;;;;14.80;13.80;;;12.80;39.00;;;;;;5088489;28;20463;-74
2022/03/08 12:55:05;;;;;;;16.00;15.00;;;13.00;38.20;;;;;;5088403;28;20447;-74
2022/03/08 12:57:36;;;;;;;15.73;14.60;;;13.00;37.90;;;;;;5088418;28;20460;-74
2022/03/08 13:00:04;;;;;;;16.37;15.27;;;13.10;37.90;;;;;;5088326;28;20454;-74
2022/03/08 13:02:35;;;;;;;15.00;14.00;;;12.90;38.30;;;;;;5088078;28;20861;-73
2022/03/08 13:05:05;;;;;;;14.73;13.80;;;12.30;37.50;;;;;;5088291;28;20447;-74
2022/03/08 13:07:32;;;;;;;13.80;13.10;;;12.40;37.50;;;;;;5088095;28;20508;-73
2022/03/08 13:10:00;;;;;;;15.60;14.50;;;12.40;37.10;;;;;;5087694;28;20537;-73
2022/03/08 13:12:30;;;;;;;13.80;13.07;;;12.60;37.40;;;;;;5087907;28;20443;-74
2022/03/08 13:15:22;;;;;;;14.47;13.50;;;13.10;36.90;;;;;;5087833;28;20446;-74
2022/03/08 13:17:53;;;;;;;14.77;13.87;;;13.20;35.60;;;;;;5073265;28;20467;-73
2022/03/08 13:20:32;;;;;;;14.60;13.60;;;13.40;36.30;;;;;;5088041;28;20806;-74
2022/03/08 13:23:00;;;;;;;14.43;13.67;;;13.60;36.60;;;;;;5087900;28;20446;-74
2022/03/08 13:25:28;;;;;;;14.80;14.00;;;13.40;36.20;;;;;;5087969;28;20495;-74
2022/03/08 13:28:30;;;;;;;13.90;13.10;;;13.50;36.70;;;;;;5087755;28;20932;-74
2022/03/08 13:36:08;;;;;;;13.37;11.50;;;12.10;37.40;;;;;;5066673;28;20474;-75
2022/03/08 13:38:36;;;;;;;13.20;12.50;;;12.50;38.20;;;;;;5070394;28;20950;-73
2022/03/08 13:41:07;;;;;;;13.33;12.40;;;12.50;38.00;;;;;;5070492;28;20439;-73
2022/03/08 13:43:36;;;;;;;14.63;13.43;;;12.60;38.60;;;;;;5070390;28;20542;-73
2022/03/08 13:46:05;;;;;;;12.57;11.67;;;12.40;38.40;;;;;;5070412;28;20447;-73
2022/03/08 13:48:35;;;;;;;13.80;12.90;;;12.20;39.10;;;;;;5070529;28;20451;-73
2022/03/08 13:51:03;;;;;;;13.13;12.10;;;12.50;38.90;;;;;;5070290;28;20488;-72
2022/03/08 13:53:31;;;;;;;13.10;12.30;;;12.30;37.90;;;;;;5070180;28;20490;-73
2022/03/08 13:55:58;;;;;;;12.23;11.53;;;11.20;38.00;;;;;;5070053;28;20451;-73
2022/03/08 13:58:27;;;;;;;11.80;11.10;;;10.60;38.50;;;;;;5070040;28;20877;-73
2022/03/08 14:00:54;;;;;;;13.70;12.70;;;10.20;39.20;;;;;;5069934;28;20864;-73
2022/03/08 14:03:21;;;;;;;13.50;12.70;;;9.90;40.40;;;;;;5070142;28;20823;-72
2022/03/08 14:05:57;;;;;;;14.60;13.67;;;9.80;40.70;;;;;;5069982;28;20477;-73
2022/03/08 14:08:32;;;;;;;13.23;12.30;;;9.70;41.20;;;;;;5070104;28;20451;-73
2022/03/08 14:11:01;;;;;;;13.10;12.07;;;9.60;40.10;;;;;;5069774;28;20482;-73
2022/03/08 14:13:28;;;;;;;14.23;13.27;;;9.60;40.20;;;;;;5070045;28;20447;-72
2022/03/08 14:15:59;;;;;;;14.77;13.67;;;9.60;40.90;;;;;;5069856;28;20447;-73
2022/03/08 14:18:26;;;;;;;15.10;13.90;;;9.60;41.50;;;;;;5069933;28;20827;-73
2022/03/08 14:20:53;;;;;;;14.50;13.50;;;9.80;42.30;;;;;;5070004;28;20497;-73
2022/03/08 14:23:20;;;;;;;13.80;12.90;;;9.70;42.10;;;;;;5069977;28;20456;-73
2022/03/08 14:25:59;;;;;;;14.60;13.50;;;9.70;42.20;;;;;;5069946;28;20458;-73
2022/03/08 14:28:47;;;;;;;15.07;14.03;;;9.80;42.40;;;;;;5069782;28;20636;-73
2022/03/08 14:31:19;;;;;;;14.90;13.70;;;9.80;42.00;;;;;;5069842;28;20545;-73
2022/03/08 14:34:07;;;;;;;15.73;14.53;;;9.80;42.40;;;;;;5083642;28;20469;-72
2022/03/08 14:36:43;;;;;;;15.40;14.30;;;9.80;42.70;;;;;;5090197;28;20447;-74
2022/03/08 14:39:19;;;;;;;14.80;13.70;;;9.90;43.40;;;;;;5089866;28;20450;-74
2022/03/08 14:42:00;;;;;;;15.10;13.90;;;9.90;43.50;;;;;;5089964;28;20512;-74
2022/03/08 14:44:28;;;;;;;12.77;11.97;;;9.80;43.30;;;;;;5089939;28;20469;-74
2022/03/08 14:46:55;;;;;;;13.60;12.70;;;9.80;43.60;;;;;;5092022;28;20847;-75
2022/03/08 14:49:22;;;;;;;13.47;12.40;;;9.80;44.10;;;;;;5093652;28;20819;-74
2022/03/08 14:51:49;;;;;;;15.60;14.50;;;9.90;44.20;;;;;;5093655;28;20490;-74
2022/03/08 14:54:16;;;;;;;14.00;12.90;;;9.80;43.70;;;;;;5093510;28;20443;-74
2022/03/08 14:56:43;;;;;;;17.67;13.57;;;9.90;43.80;;;;;;5093632;28;20451;-74
2022/03/08 14:59:12;;;;;;;12.43;11.63;;;10.00;42.70;;;;;;5093540;28;20454;-74
2022/03/08 15:01:40;;;;;;;12.90;12.00;;;9.90;42.60;;;;;;5093237;28;20553;-74
2022/03/08 15:04:07;;;;;;;13.67;12.77;;;9.90;42.30;;;;;;5093374;28;20946;-74
2022/03/08 15:06:36;;;;;;;13.57;12.57;;;9.80;42.60;;;;;;5093388;28;20442;-74
2022/03/08 15:09:04;;;;;;;13.60;12.67;;;9.90;42.90;;;;;;5093502;28;20450;-74
2022/03/08 15:11:31;;;;;;;14.00;13.00;;;10.00;42.40;;;;;;5093251;28;20854;-73
2022/03/08 15:13:58;;;;;;;13.23;12.13;;;9.90;42.50;;;;;;5093154;28;20465;-73
2022/03/08 15:16:26;;;;;;;11.10;10.40;;;9.90;42.50;;;;;;5092959;28;20455;-75
2022/03/08 15:18:53;;;;;;;10.63;9.93;;;9.90;41.00;;;;;;5092927;28;20804;-73
2022/03/08 15:21:20;;;;;;;12.57;11.67;;;9.80;40.40;;;;;;5093287;28;20458;-72
2022/03/08 15:23:47;;;;;;;12.13;11.40;;;9.90;40.60;;;;;;5093394;28;20494;-73
2022/03/08 15:26:15;;;;;;;12.30;11.30;;;9.70;40.30;;;;;;5093039;28;20450;-73
2022/03/08 15:28:42;;;;;;;13.53;12.30;;;9.70;40.30;;;;;;5093009;28;20457;-73
2022/03/08 15:31:09;;;;;;;11.70;11.00;;;9.70;40.50;;;;;;5092627;28;20487;-73
2022/03/08 15:33:38;;;;;;;12.97;11.60;;;9.70;40.60;;;;;;5092870;28;20561;-73
2022/03/08 15:36:05;;;;;;;12.47;11.67;;;9.70;40.80;;;;;;5092973;28;20486;-74
2022/03/08 15:38:31;;;;;;;12.63;11.83;;;9.70;40.50;;;;;;5092919;28;20458;-73
2022/03/08 15:40:59;;;;;;;11.60;10.80;;;9.80;40.80;;;;;;5092661;28;20447;-73
2022/03/08 15:43:25;;;;;;;12.63;11.93;;;9.70;40.20;;;;;;5092448;28;20446;-74
2022/03/08 15:45:52;;;;;;;12.47;11.67;;;9.70;40.60;;;;;;5092550;28;20454;-73
2022/03/08 15:48:19;;;;;;;12.10;11.30;;;9.70;40.50;;;;;;5092710;28;20447;-74
2022/03/08 15:50:47;;;;;;;11.73;10.83;;;9.70;40.30;;;;;;5092511;28;20490;-74
2022/03/08 15:53:14;;;;;;;12.37;11.67;;;9.60;40.60;;;;;;5092252;28;20988;-74
2022/03/08 15:55:41;;;;;;;13.57;12.80;;;9.60;40.90;;;;;;5092473;28;20478;-74
2022/03/08 15:58:07;;;;;;;13.13;12.23;;;9.50;41.10;;;;;;5092085;28;20447;-73
2022/03/08 16:00:34;;;;;;;12.20;11.50;;;9.50;40.90;;;;;;5092487;28;20527;-73
2022/03/08 16:03:02;;;;;;;11.17;10.37;;;9.50;41.20;;;;;;5092318;28;20439;-74
2022/03/08 16:05:29;;;;;;;11.77;11.07;;;9.40;41.20;;;;;;5092073;28;20455;-74
2022/03/08 16:07:57;;;;;;;12.67;11.87;;;9.40;41.30;;;;;;5092002;28;20474;-74
2022/03/08 16:10:23;;;;;;;13.03;12.13;;;9.40;41.40;;;;;;5091937;28;20554;-73
2022/03/08 16:12:50;;;;;;;12.60;11.80;;;9.30;41.80;;;;;;5092260;28;20845;-74
2022/03/08 16:15:17;;;;;;;13.67;12.57;;;9.30;41.90;;;;;;5092303;28;20867;-73
2022/03/08 16:17:43;;;;;;;13.87;12.97;;;9.20;41.70;;;;;;5092360;28;20464;-74
2022/03/08 16:20:11;;;;;;;13.77;12.77;;;9.20;42.30;;;;;;5091771;28;20446;-74
2022/03/08 16:22:38;;;;;;;12.43;11.60;;;9.20;42.90;;;;;;5091891;28;20446;-74
2022/03/08 16:25:07;;;;;;;13.80;12.80;;;9.10;43.20;;;;;;5092026;28;20443;-75
2022/03/08 16:27:35;;;;;;;12.23;11.33;;;9.10;43.70;;;;;;5091927;28;20459;-74
2022/03/08 16:30:01;;;;;;;13.83;12.70;;;9.10;43.80;;;;;;5091812;28;20534;-74
2022/03/08 16:32:28;;;;;;;16.77;15.20;;;9.10;43.90;;;;;;5091538;28;20505;-74
2022/03/08 16:34:55;;;;;;;13.20;12.20;;;9.00;43.90;;;;;;5091403;28;20510;-74
2022/03/08 16:37:21;;;;;;;13.90;12.97;;;8.90;43.90;;;;;;5091566;28;20451;-74
2022/03/08 16:39:48;;;;;;;13.37;12.40;;;8.90;44.20;;;;;;5091860;28;20461;-74
2022/03/08 16:42:16;;;;;;;14.57;12.80;;;8.90;43.60;;;;;;5091428;28;20446;-75
2022/03/08 16:44:43;;;;;;;13.63;12.60;;;8.90;43.40;;;;;;5091562;28;20442;-75
2022/03/08 16:47:10;;;;;;;12.33;11.53;;;8.80;43.60;;;;;;5091389;28;20450;-75
2022/03/08 16:49:38;;;;;;;14.07;13.17;;;8.80;44.00;;;;;;5091595;28;20481;-74
2022/03/08 16:52:05;;;;;;;13.80;12.50;;;8.70;43.80;;;;;;5091503;28;20490;-74
2022/03/08 16:54:33;;;;;;;13.67;12.80;;;8.60;44.00;;;;;;5091375;28;20446;-76
2022/03/08 16:56:59;;;;;;;13.70;12.63;;;8.50;44.10;;;;;;5091144;28;20447;-74
2022/03/08 16:59:27;;;;;;;12.47;11.67;;;8.50;44.30;;;;;;5091139;28;20442;-74
2022/03/08 17:01:54;;;;;;;12.67;11.77;;;8.40;44.60;;;;;;5091052;28;20545;-74
2022/03/08 17:04:21;;;;;;;13.13;11.80;;;8.40;44.70;;;;;;5091030;28;20489;-74
2022/03/08 17:06:47;;;;;;;13.17;12.30;;;8.30;44.70;;;;;;5091293;28;20450;-75
2022/03/08 17:09:14;;;;;;;12.50;11.50;;;8.30;44.50;;;;;;5090599;28;20454;-72
2022/03/08 17:11:41;;;;;;;11.90;11.00;;;8.30;44.90;;;;;;5090777;28;20901;-73
2022/03/08 17:14:07;;;;;;;12.30;11.00;;;8.20;45.10;;;;;;5091347;28;20854;-73
2022/03/08 17:16:35;;;;;;;12.20;11.30;;;8.10;44.90;;;;;;5091046;28;20443;-71
2022/03/08 17:19:02;;;;;;;14.13;12.80;;;8.10;45.80;;;;;;5090880;28;20453;-74
2022/03/08 17:21:30;;;;;;;12.93;12.03;;;8.00;45.60;;;;;;5090815;28;20450;-73
2022/03/08 17:23:57;;;;;;;11.17;10.37;;;7.90;46.00;;;;;;5090709;28;20641;-72
2022/03/08 17:26:24;;;;;;;12.57;11.67;;;7.70;46.30;;;;;;5090684;28;20504;-74
2022/03/08 17:28:51;;;;;;;12.57;11.77;;;7.50;46.50;;;;;;5090719;28;20458;-74
2022/03/08 17:31:18;;;;;;;12.60;11.60;;;7.40;46.70;;;;;;5090451;28;20482;-73
2022/03/08 17:33:46;;;;;;;12.67;11.77;;;7.40;46.90;;;;;;5090016;28;20466;-73
2022/03/08 17:36:12;;;;;;;13.17;12.07;;;7.30;46.80;;;;;;5090602;28;20446;-72
2022/03/08 17:38:39;;;;;;;13.53;12.57;;;7.20;46.80;;;;;;5090520;28;20957;-72
2022/03/08 17:41:06;;;;;;;12.57;11.57;;;7.30;47.00;;;;;;5090640;28;20447;-73
2022/03/08 17:43:32;;;;;;;14.10;12.70;;;7.20;47.00;;;;;;5090621;28;20492;-73
2022/03/08 17:45:59;;;;;;;11.90;11.10;;;7.20;47.00;;;;;;5090332;28;20447;-72
2022/03/08 17:48:26;;;;;;;13.20;11.97;;;7.20;47.00;;;;;;5090289;28;20477;-73
2022/03/08 17:50:54;;;;;;;12.43;11.53;;;7.10;47.00;;;;;;5090192;28;20454;-72
2022/03/08 17:53:20;;;;;;;12.10;11.20;;;7.10;47.20;;;;;;5090514;28;20451;-73
2022/03/08 17:55:47;;;;;;;12.70;11.60;;;7.00;47.30;;;;;;5090427;28;20442;-73
2022/03/08 17:58:14;;;;;;;13.30;12.30;;;6.90;47.70;;;;;;5089926;28;20454;-73
